createdAt,value
2022-11-05T00:00:38.913Z,20.97
2022-11-05T00:03:25.626Z,20.97
2022-11-05T00:06:12.754Z,20.30
2022-11-05T00:09:00.477Z,20.60
2022-11-05T00:11:48.881Z,21.10
2022-11-05T00:14:35.173Z,20.17
2022-11-05T00:17:02.970Z,23.13
2022-11-05T00:19:30.650Z,22.20
2022-11-05T00:22:16.743Z,24.43
2022-11-05T00:25:06.083Z,22.90
2022-11-05T00:27:34.269Z,23.30
2022-11-05T00:30:07.631Z,23.80
2022-11-05T00:32:37.641Z,22.93
2022-11-05T00:35:07.319Z,22.37
2022-11-05T00:37:35.903Z,22.73
2022-11-05T00:40:07.791Z,22.23
2022-11-05T00:42:54.003Z,24.63
2022-11-05T00:48:08.435Z,21.57
2022-11-05T00:50:36.336Z,21.37
2022-11-05T00:53:04.660Z,23.00
2022-11-05T00:55:38.049Z,23.70
2022-11-05T00:58:08.952Z,22.73
2022-11-05T01:00:39.358Z,24.07
2022-11-05T01:03:10.844Z,24.60
2022-11-05T01:05:42.516Z,24.27
2022-11-05T01:08:10.413Z,22.50
2022-11-05T01:10:42.481Z,23.17
2022-11-05T01:13:13.378Z,23.57
2022-11-05T01:15:42.338Z,22.23
2022-11-05T01:18:10.322Z,23.53
2022-11-05T01:20:38.457Z,23.90
2022-11-05T01:23:10.397Z,23.57
2022-11-05T01:25:43.310Z,24.40
2022-11-05T01:28:11.235Z,23.27
2022-11-05T01:30:39.182Z,21.67
2022-11-05T01:33:07.370Z,21.83
2022-11-05T01:35:35.169Z,21.80
2022-11-05T01:38:02.919Z,21.87
2022-11-05T01:40:30.805Z,22.40
2022-11-05T01:43:00.016Z,24.20
2022-11-05T01:45:28.653Z,23.40
2022-11-05T01:48:05.551Z,23.57
2022-11-05T01:50:47.200Z,24.83
2022-11-05T01:53:25.897Z,23.43
2022-11-05T01:56:01.228Z,24.77
2022-11-05T01:58:34.605Z,23.45
2022-11-05T02:01:02.529Z,24.07
2022-11-05T02:03:31.791Z,25.37
2022-11-05T02:06:02.652Z,25.93
2022-11-05T02:08:57.075Z,26.30
2022-11-05T02:11:25.155Z,24.00
2022-11-05T02:13:54.479Z,26.33
2022-11-05T02:16:37.681Z,24.07
2022-11-05T02:19:42.618Z,24.73
2022-11-05T02:22:58.654Z,22.93
2022-11-05T02:26:07.800Z,22.53
2022-11-05T02:29:26.605Z,25.37
2022-11-05T02:32:10.246Z,25.07
2022-11-05T02:34:55.528Z,24.73
2022-11-05T02:37:39.122Z,24.30
2022-11-05T02:40:17.784Z,24.73
2022-11-05T02:42:58.534Z,26.83
2022-11-05T02:45:41.651Z,28.50
2022-11-05T02:48:23.203Z,26.77
2022-11-05T02:51:03.045Z,28.57
2022-11-05T02:53:43.409Z,27.13
2022-11-05T02:56:20.761Z,27.73
2022-11-05T02:58:48.478Z,26.97
2022-11-05T03:01:16.573Z,28.27
2022-11-05T03:03:49.670Z,28.27
2022-11-05T03:06:56.129Z,27.83
2022-11-05T03:10:10.749Z,25.30
2022-11-05T03:12:53.419Z,23.50
2022-11-05T03:15:39.452Z,25.00
2022-11-05T03:18:14.924Z,22.80
2022-11-05T03:20:52.018Z,24.05
2022-11-05T03:23:29.176Z,23.47
2022-11-05T03:26:12.408Z,23.70
2022-11-05T03:28:46.187Z,22.80
2022-11-05T03:31:17.660Z,22.90
2022-11-05T03:33:48.104Z,21.40
2022-11-05T03:36:23.240Z,25.17
2022-11-05T03:38:57.030Z,24.73
2022-11-05T03:41:27.001Z,28.00
2022-11-05T03:43:58.987Z,26.33
2022-11-05T03:46:33.087Z,27.57
2022-11-05T03:49:05.749Z,26.70
2022-11-05T03:51:45.936Z,24.63
2022-11-05T03:54:14.696Z,24.53
2022-11-05T03:56:54.815Z,24.37
2022-11-05T03:59:23.933Z,22.40
2022-11-05T04:01:51.928Z,23.53
2022-11-05T04:04:19.939Z,27.90
2022-11-05T04:07:07.868Z,29.53
2022-11-05T04:09:54.360Z,27.97
2022-11-05T04:12:40.695Z,25.70
2022-11-05T04:15:08.948Z,26.53
2022-11-05T04:17:36.767Z,26.73
2022-11-05T04:20:24.320Z,28.93
2022-11-05T04:23:19.357Z,26.23
2022-11-05T04:25:47.515Z,26.90
2022-11-05T04:28:15.519Z,27.17
2022-11-05T04:30:44.453Z,28.80
2022-11-05T04:33:15.386Z,29.73
2022-11-05T04:35:46.233Z,35.07
2022-11-05T04:38:18.824Z,32.10
2022-11-05T04:40:48.197Z,41.93
2022-11-05T04:43:19.450Z,37.53
2022-11-05T04:45:47.446Z,34.80
2022-11-05T04:48:15.229Z,36.03
2022-11-05T04:50:43.015Z,33.97
2022-11-05T04:53:11.037Z,32.40
2022-11-05T04:55:40.457Z,31.53
2022-11-05T04:58:09.368Z,33.77
2022-11-05T05:00:37.245Z,35.23
2022-11-05T05:03:05.158Z,33.13
2022-11-05T05:05:33.049Z,32.67
2022-11-05T05:08:01.678Z,34.13
2022-11-05T05:10:29.483Z,37.90
2022-11-05T05:12:58.566Z,38.83
2022-11-05T05:15:26.299Z,41.33
2022-11-05T05:17:54.165Z,47.87
2022-11-05T05:20:40.875Z,50.30
2022-11-05T05:23:08.898Z,41.17
2022-11-05T05:25:36.941Z,53.77
2022-11-05T05:28:06.166Z,76.60
2022-11-05T05:30:34.312Z,46.60
2022-11-05T05:33:03.784Z,37.60
2022-11-05T05:35:31.626Z,48.93
2022-11-05T05:37:59.693Z,70.93
2022-11-05T05:40:27.524Z,75.63
2022-11-05T05:42:55.771Z,80.20
2022-11-05T05:45:24.828Z,65.50
2022-11-05T05:47:55.362Z,40.63
2022-11-05T05:50:23.139Z,59.27
2022-11-05T05:52:53.387Z,38.77
2022-11-05T05:55:21.251Z,43.37
2022-11-05T05:57:49.683Z,44.00
2022-11-05T06:00:18.442Z,42.50
2022-11-05T06:02:47.644Z,43.13
2022-11-05T06:05:15.817Z,47.20
2022-11-05T06:07:43.564Z,68.33
2022-11-05T06:10:11.503Z,38.97
2022-11-05T06:12:39.367Z,39.93
2022-11-05T06:15:08.210Z,72.23
2022-11-05T06:17:36.004Z,48.80
2022-11-05T06:20:08.399Z,64.70
2022-11-05T06:22:36.306Z,49.63
2022-11-05T06:25:05.678Z,83.70
2022-11-05T06:27:33.878Z,64.70
2022-11-05T06:30:01.829Z,67.80
2022-11-05T06:32:31.087Z,40.50
2022-11-05T06:34:58.978Z,55.57
2022-11-05T06:37:28.144Z,50.13
2022-11-05T06:39:57.100Z,39.93
2022-11-05T06:42:24.859Z,48.47
2022-11-05T06:44:52.945Z,73.63
2022-11-05T06:47:20.879Z,40.90
2022-11-05T06:49:48.739Z,53.03
2022-11-05T06:52:17.389Z,64.13
2022-11-05T06:54:46.499Z,46.93
2022-11-05T06:57:15.314Z,69.80
2022-11-05T06:59:43.103Z,51.53
2022-11-05T07:02:13.480Z,64.87
2022-11-05T07:04:41.457Z,69.53
2022-11-05T07:07:09.575Z,54.37
2022-11-05T07:09:42.965Z,76.63
2022-11-05T07:12:12.046Z,69.00
2022-11-05T07:14:39.883Z,57.33
2022-11-05T07:17:07.714Z,54.00
2022-11-05T07:19:35.515Z,60.33
2022-11-05T07:22:03.510Z,70.70
2022-11-05T07:24:31.179Z,75.97
2022-11-05T07:26:58.955Z,67.30
2022-11-05T07:29:28.011Z,62.20
2022-11-05T07:31:55.831Z,66.67
2022-11-05T07:34:23.528Z,67.50
2022-11-05T07:36:51.647Z,64.43
2022-11-05T07:39:19.678Z,80.90
2022-11-05T07:41:47.425Z,71.73
2022-11-05T07:44:17.506Z,66.23
2022-11-05T07:46:46.750Z,65.37
2022-11-05T07:49:14.496Z,53.97
2022-11-05T07:51:42.498Z,58.63
2022-11-05T07:54:10.681Z,49.10
2022-11-05T07:56:38.467Z,49.63
2022-11-05T07:59:06.691Z,48.50
2022-11-05T08:01:34.710Z,47.53
2022-11-05T08:04:04.544Z,47.53
2022-11-05T08:06:32.403Z,48.93
2022-11-05T08:09:00.274Z,44.37
2022-11-05T08:11:28.070Z,48.57
2022-11-05T08:13:55.898Z,46.63
2022-11-05T08:16:23.665Z,47.20
2022-11-05T08:18:51.660Z,48.33
2022-11-05T08:21:20.802Z,49.53
2022-11-05T08:23:48.538Z,48.03
2022-11-05T08:26:16.336Z,47.47
2022-11-05T08:28:44.206Z,45.00
2022-11-05T08:31:14.223Z,46.47
2022-11-05T08:33:42.213Z,49.07
2022-11-05T08:36:09.943Z,48.63
2022-11-05T08:38:38.945Z,48.87
2022-11-05T08:41:06.747Z,49.80
2022-11-05T08:43:34.522Z,46.90
2022-11-05T08:46:02.773Z,47.07
2022-11-05T08:48:30.559Z,51.17
2022-11-05T08:51:00.860Z,48.00
2022-11-05T08:53:28.653Z,46.47
2022-11-05T08:55:59.507Z,47.03
2022-11-05T08:58:28.264Z,47.47
2022-11-05T09:00:58.974Z,50.17
2022-11-05T09:03:29.642Z,46.30
2022-11-05T09:05:57.472Z,45.10
2022-11-05T09:08:25.374Z,44.00
2022-11-05T09:10:53.098Z,38.60
2022-11-05T09:13:22.910Z,36.53
2022-11-05T09:15:51.773Z,36.90
2022-11-05T09:18:20.873Z,38.17
2022-11-05T09:20:48.817Z,37.67
2022-11-05T09:23:17.074Z,38.93
2022-11-05T09:25:45.185Z,38.90
2022-11-05T09:28:17.345Z,35.73
2022-11-05T09:30:50.023Z,39.63
2022-11-05T09:33:19.929Z,66.23
2022-11-05T09:35:48.115Z,42.50
2022-11-05T09:38:16.269Z,36.90
2022-11-05T09:40:59.545Z,38.67
2022-11-05T09:43:35.127Z,35.83
2022-11-05T09:46:12.541Z,36.45
2022-11-05T09:48:42.431Z,31.77
2022-11-05T09:51:19.286Z,32.47
2022-11-05T09:53:51.022Z,32.17
2022-11-05T09:56:24.984Z,32.73
2022-11-05T09:58:59.982Z,36.13
2022-11-05T10:01:35.289Z,33.72
2022-11-05T10:04:13.059Z,28.47
2022-11-05T10:06:49.156Z,23.63
2022-11-05T10:09:25.210Z,24.00
2022-11-05T10:12:00.302Z,25.63
2022-11-05T10:14:33.762Z,23.55
2022-11-05T10:17:12.718Z,21.90
2022-11-05T10:19:47.778Z,14.90
2022-11-05T10:22:19.466Z,14.88
2022-11-05T10:24:52.072Z,12.25
2022-11-05T10:27:25.147Z,11.77
2022-11-05T10:29:53.335Z,10.00
2022-11-05T10:32:30.666Z,10.18
2022-11-05T10:35:02.557Z,8.93
2022-11-05T10:37:35.841Z,8.68
2022-11-05T10:40:20.076Z,8.77
2022-11-05T10:43:03.527Z,8.48
2022-11-05T10:45:55.307Z,7.63
2022-11-05T10:48:52.739Z,7.22
2022-11-05T10:51:20.682Z,7.00
2022-11-05T10:54:00.518Z,7.30
2022-11-05T10:56:35.451Z,8.02
2022-11-05T10:59:11.809Z,6.80
2022-11-05T11:01:40.416Z,6.45
2022-11-05T11:04:20.188Z,6.93
2022-11-05T11:06:51.598Z,6.32
2022-11-05T11:09:24.806Z,6.80
2022-11-05T11:12:18.837Z,7.20
2022-11-05T11:15:01.095Z,8.02
2022-11-05T11:17:32.281Z,7.10
2022-11-05T11:20:25.845Z,7.50
2022-11-05T11:23:05.166Z,7.40
2022-11-05T11:25:44.622Z,6.70
2022-11-05T11:28:21.821Z,6.60
2022-11-05T11:30:57.396Z,6.50
2022-11-05T11:33:28.453Z,6.40
2022-11-05T11:35:58.272Z,7.43
2022-11-05T11:38:31.203Z,6.95
2022-11-05T11:41:22.768Z,7.30
2022-11-05T11:43:59.479Z,7.75
2022-11-05T11:46:34.088Z,7.57
2022-11-05T11:49:02.528Z,7.88
2022-11-05T11:51:36.674Z,7.93
2022-11-05T11:54:05.343Z,8.63
2022-11-05T11:56:45.181Z,10.07
2022-11-05T11:59:40.435Z,8.33
2022-11-05T12:02:46.193Z,8.60
2022-11-05T12:05:34.713Z,7.97
2022-11-05T12:08:23.872Z,7.72
2022-11-05T12:11:04.176Z,8.37
2022-11-05T12:13:56.852Z,8.30
2022-11-05T12:16:50.501Z,7.27
2022-11-05T12:19:40.379Z,6.17
2022-11-05T12:22:22.052Z,6.17
2022-11-05T12:25:17.557Z,5.73
2022-11-05T12:28:14.183Z,5.22
2022-11-05T12:30:55.823Z,5.40
2022-11-05T12:33:38.376Z,5.88
2022-11-05T12:36:25.953Z,5.70
2022-11-05T12:39:19.230Z,5.93
2022-11-05T12:41:58.720Z,5.83
2022-11-05T12:45:00.317Z,6.60
2022-11-05T12:47:53.320Z,11.90
2022-11-05T12:50:33.915Z,5.80
2022-11-05T12:53:40.765Z,11.17
2022-11-05T12:58:53.827Z,15.05
2022-11-05T13:01:31.860Z,14.80
2022-11-05T13:04:08.680Z,12.17
2022-11-05T13:06:41.778Z,8.10
2022-11-05T13:09:17.818Z,6.43
2022-11-05T13:11:53.453Z,7.27
2022-11-05T13:14:29.112Z,6.40
2022-11-05T13:17:02.263Z,7.70
2022-11-05T13:19:37.364Z,7.03
2022-11-05T13:22:29.107Z,7.03
2022-11-05T13:25:05.031Z,6.37
2022-11-05T13:27:51.990Z,5.30
2022-11-05T13:30:25.043Z,4.83
2022-11-05T13:33:01.827Z,4.47
2022-11-05T13:35:36.109Z,4.23
2022-11-05T13:38:27.620Z,4.43
2022-11-05T13:41:18.290Z,4.40
2022-11-05T13:44:24.074Z,3.17
2022-11-05T13:47:19.475Z,3.40
2022-11-05T13:50:13.396Z,3.70
2022-11-05T13:53:06.080Z,3.07
2022-11-05T13:55:56.541Z,3.60
2022-11-05T13:59:00.520Z,3.37
2022-11-05T14:01:44.873Z,3.20
2022-11-05T14:04:30.126Z,3.37
2022-11-05T14:07:09.180Z,3.90
2022-11-05T14:09:39.579Z,3.40
2022-11-05T14:12:23.426Z,3.30
2022-11-05T14:15:00.153Z,3.23
2022-11-05T14:17:33.959Z,3.20
2022-11-05T14:20:42.287Z,3.25
2022-11-05T14:23:50.398Z,3.20
2022-11-05T14:26:23.192Z,3.20
2022-11-05T14:29:23.000Z,3.20
2022-11-05T14:32:13.071Z,3.67
2022-11-05T14:34:53.355Z,3.90
2022-11-05T14:37:30.116Z,3.37
2022-11-05T14:40:29.511Z,3.43
2022-11-05T14:43:02.662Z,3.17
2022-11-05T14:45:35.082Z,3.90
2022-11-05T14:48:23.331Z,3.40
2022-11-05T14:50:51.741Z,4.03
2022-11-05T14:53:34.666Z,4.17
2022-11-05T14:56:08.483Z,4.03
2022-11-05T14:58:38.846Z,4.10
2022-11-05T15:01:09.626Z,4.90
2022-11-05T15:04:16.245Z,4.23
2022-11-05T15:07:32.010Z,4.50
2022-11-05T15:10:10.489Z,4.50
2022-11-05T15:12:45.595Z,4.27
2022-11-05T15:15:22.708Z,4.72
2022-11-05T15:18:02.765Z,5.50
2022-11-05T15:20:40.343Z,5.33
2022-11-05T15:23:15.525Z,5.00
2022-11-05T15:25:53.439Z,5.22
2022-11-05T15:28:34.020Z,6.97
2022-11-05T15:31:05.022Z,6.60
2022-11-05T15:33:33.372Z,5.40
2022-11-05T15:36:27.760Z,5.77
2022-11-05T15:39:27.346Z,6.30
2022-11-05T15:41:47.149Z,6.70
2022-11-05T15:44:29.401Z,6.13
2022-11-05T15:47:13.608Z,5.87
2022-11-05T15:49:44.335Z,6.07
2022-11-05T15:52:15.241Z,6.13
2022-11-05T15:54:44.155Z,6.30
2022-11-05T15:57:29.153Z,6.50
2022-11-05T15:59:57.208Z,6.20
2022-11-05T16:02:33.429Z,6.07
2022-11-05T16:05:09.606Z,5.80
2022-11-05T16:07:42.684Z,5.90
2022-11-05T16:10:20.612Z,5.87
2022-11-05T16:12:50.163Z,5.83
2022-11-05T16:15:23.144Z,5.97
2022-11-05T16:17:55.208Z,6.20
2022-11-05T16:20:29.573Z,5.70
2022-11-05T16:23:01.256Z,6.63
2022-11-05T16:25:37.960Z,6.40
2022-11-05T16:28:22.285Z,6.53
2022-11-05T16:30:56.680Z,6.57
2022-11-05T16:33:27.653Z,6.03
2022-11-05T16:35:55.538Z,6.47
2022-11-05T16:38:24.274Z,6.43
2022-11-05T16:40:52.273Z,5.50
2022-11-05T16:43:24.627Z,5.63
2022-11-05T16:45:55.341Z,5.70
2022-11-05T16:48:23.358Z,4.90
2022-11-05T16:50:51.914Z,5.20
2022-11-05T16:53:19.955Z,4.97
2022-11-05T16:55:48.003Z,5.13
2022-11-05T16:58:22.518Z,4.97
2022-11-05T17:00:54.599Z,5.30
2022-11-05T17:03:22.411Z,5.23
2022-11-05T17:05:50.111Z,5.57
2022-11-05T17:08:18.056Z,5.80
2022-11-05T17:10:46.014Z,5.80
2022-11-05T17:13:16.811Z,5.40
2022-11-05T17:15:49.553Z,5.27
2022-11-05T17:18:19.073Z,5.70
2022-11-05T17:20:50.765Z,5.57
2022-11-05T17:23:21.411Z,5.90
2022-11-05T17:25:53.590Z,5.93
2022-11-05T17:28:21.958Z,6.17
2022-11-05T17:30:54.128Z,5.93
2022-11-05T17:33:23.389Z,6.30
2022-11-05T17:35:52.588Z,6.13
2022-11-05T17:38:22.417Z,6.53
2022-11-05T17:40:50.770Z,6.47
2022-11-05T17:43:20.133Z,5.90
2022-11-05T17:45:58.620Z,6.60
2022-11-05T17:48:29.452Z,5.80
2022-11-05T17:50:57.251Z,5.80
2022-11-05T17:53:25.357Z,5.70
2022-11-05T17:55:53.282Z,5.37
2022-11-05T17:58:21.118Z,6.20
2022-11-05T18:00:49.201Z,6.67
2022-11-05T18:03:18.294Z,5.97
2022-11-05T18:05:46.262Z,6.13
2022-11-05T18:08:14.101Z,6.37
2022-11-05T18:10:42.742Z,6.30
2022-11-05T18:13:11.636Z,6.57
2022-11-05T18:15:41.031Z,6.37
2022-11-05T18:18:09.628Z,5.90
2022-11-05T18:20:39.172Z,6.47
2022-11-05T18:23:07.047Z,6.40
2022-11-05T18:25:34.927Z,6.27
2022-11-05T18:28:03.460Z,5.87
2022-11-05T18:30:31.326Z,6.60
2022-11-05T18:32:59.203Z,6.13
2022-11-05T18:35:27.013Z,6.20
2022-11-05T18:37:56.341Z,6.50
2022-11-05T18:40:24.236Z,6.07
2022-11-05T18:42:52.243Z,6.17
2022-11-05T18:45:21.036Z,6.00
2022-11-05T18:47:51.132Z,6.30
2022-11-05T18:50:19.100Z,6.03
2022-11-05T18:52:46.864Z,5.80
2022-11-05T18:55:16.026Z,6.00
2022-11-05T18:57:43.871Z,5.60
2022-11-05T19:00:14.464Z,5.97
2022-11-05T19:02:42.356Z,5.47
2022-11-05T19:07:58.843Z,5.83
2022-11-05T19:10:28.346Z,5.57
2022-11-05T19:12:56.415Z,6.03
2022-11-05T19:15:24.174Z,5.97
2022-11-05T19:17:51.932Z,5.90
2022-11-05T19:20:19.777Z,5.67
2022-11-05T19:22:47.651Z,4.83
2022-11-05T19:25:15.495Z,5.37
2022-11-05T19:27:45.275Z,5.30
2022-11-05T19:30:13.240Z,5.80
2022-11-05T19:32:41.086Z,5.30
2022-11-05T19:35:09.436Z,5.07
2022-11-05T19:37:37.297Z,5.10
2022-11-05T19:40:06.987Z,5.20
2022-11-05T19:42:34.838Z,4.73
2022-11-05T19:45:30.321Z,4.80
2022-11-05T19:47:52.860Z,5.37
2022-11-05T19:50:20.604Z,5.60
2022-11-05T19:52:48.588Z,5.43
2022-11-05T19:55:16.248Z,5.27
2022-11-05T19:57:44.829Z,5.20
2022-11-05T20:00:15.300Z,5.47
2022-11-05T20:02:45.152Z,5.00
2022-11-05T20:05:13.645Z,4.93
2022-11-05T20:07:41.425Z,4.90
2022-11-05T20:10:10.772Z,4.60
2022-11-05T20:12:39.062Z,4.90
2022-11-05T20:15:08.228Z,4.70
2022-11-05T20:17:39.324Z,4.73
2022-11-05T20:20:08.809Z,4.57
2022-11-05T20:22:36.671Z,5.37
2022-11-05T20:25:06.075Z,4.63
2022-11-05T20:27:33.940Z,4.77
2022-11-05T20:30:01.903Z,4.60
2022-11-05T20:32:29.778Z,4.90
2022-11-05T20:34:58.835Z,4.73
2022-11-05T20:37:26.562Z,4.60
2022-11-05T20:39:54.395Z,4.23
2022-11-05T20:42:22.359Z,4.13
2022-11-05T20:44:50.255Z,4.23
2022-11-05T20:47:18.025Z,4.00
2022-11-05T20:49:45.844Z,4.10
2022-11-05T20:52:17.049Z,4.23
2022-11-05T20:54:44.819Z,4.03
2022-11-05T20:57:12.720Z,4.30
2022-11-05T20:59:40.468Z,3.97
2022-11-05T21:02:09.738Z,4.07
2022-11-05T21:04:39.019Z,4.60
2022-11-05T21:07:06.934Z,4.30
2022-11-05T21:09:36.073Z,3.97
2022-11-05T21:12:10.035Z,4.30
2022-11-05T21:14:38.582Z,4.10
2022-11-05T21:17:08.810Z,4.10
2022-11-05T21:19:36.979Z,4.00
2022-11-05T21:22:06.277Z,4.30
2022-11-05T21:24:35.950Z,4.60
2022-11-05T21:27:04.020Z,4.50
2022-11-05T21:29:31.878Z,4.90
2022-11-05T21:31:59.605Z,4.40
2022-11-05T21:34:28.116Z,4.97
2022-11-05T21:36:55.915Z,4.60
2022-11-05T21:39:23.757Z,4.70
2022-11-05T21:41:53.032Z,4.77
2022-11-05T21:44:21.205Z,4.67
2022-11-05T21:46:48.951Z,4.90
2022-11-05T21:49:16.835Z,5.00
2022-11-05T21:52:03.452Z,4.70
2022-11-05T21:54:49.850Z,4.70
2022-11-05T21:57:38.045Z,4.93
2022-11-05T22:00:11.055Z,5.10
2022-11-05T22:02:38.920Z,5.20
2022-11-05T22:05:08.158Z,5.50
2022-11-05T22:07:38.871Z,5.30
2022-11-05T22:10:15.594Z,4.90
2022-11-05T22:12:46.117Z,4.80
2022-11-05T22:15:14.431Z,4.90
2022-11-05T22:17:46.588Z,5.37
2022-11-05T22:20:16.069Z,5.20
2022-11-05T22:22:44.691Z,5.80
2022-11-05T22:25:13.395Z,5.37
2022-11-05T22:27:41.257Z,5.27
2022-11-05T22:30:13.265Z,5.27
2022-11-05T22:32:41.272Z,4.93
2022-11-05T22:35:09.828Z,4.37
2022-11-05T22:37:37.761Z,4.40
2022-11-05T22:40:07.010Z,4.90
2022-11-05T22:42:34.801Z,4.67
2022-11-05T22:45:02.718Z,4.73
2022-11-05T22:47:31.959Z,4.70
2022-11-05T22:49:59.759Z,4.67
2022-11-05T22:52:27.554Z,5.20
2022-11-05T22:54:55.272Z,5.00
2022-11-05T22:57:23.075Z,4.80
2022-11-05T22:59:50.910Z,4.40
2022-11-05T23:02:18.767Z,4.60
2022-11-05T23:04:49.451Z,4.63
2022-11-05T23:07:36.625Z,5.50
2022-11-05T23:10:23.522Z,5.10
2022-11-05T23:12:53.064Z,4.70
2022-11-05T23:15:39.391Z,5.47
2022-11-05T23:18:28.226Z,4.90
2022-11-05T23:21:20.462Z,5.70
2022-11-05T23:24:05.899Z,7.00
2022-11-05T23:26:51.058Z,9.13
2022-11-05T23:29:21.464Z,5.90
2022-11-05T23:32:08.098Z,5.07
2022-11-05T23:34:36.465Z,5.27
2022-11-05T23:37:24.607Z,4.90
2022-11-05T23:39:52.669Z,5.23
2022-11-05T23:42:39.932Z,4.77
2022-11-05T23:45:27.961Z,4.73
2022-11-05T23:48:15.456Z,5.20
2022-11-05T23:50:49.254Z,5.07
2022-11-05T23:53:19.233Z,4.13
2022-11-05T23:55:47.626Z,4.73
2022-11-05T23:58:16.912Z,4.90
